Time;durP1;ratioP1;P1;durP2;ratioP2;P2;SDS_P1;SDS_P2;PMS_P1;PMS_P2;Temp;Humidity;BMP_temperature;BMP_pressure;BME280_temperature;BME280_humidity;BME280_pressure;Samples;Min_cycle;Max_cycle;Signal;HPM_P1;HPM_P2
2021/01/13 00:00:38;;;;;;;6.63;5.10;;;1.60;99.90;;;;;;5041545;28;20485;-69
2021/01/13 00:03:05;;;;;;;8.77;4.80;;;1.70;99.90;;;;;;5051752;28;20822;-69
2021/01/13 00:05:31;;;;;;;10.90;5.30;;;1.70;99.90;;;;;;5051182;28;20541;-69
2021/01/13 00:07:58;;;;;;;8.17;5.13;;;1.70;99.90;;;;;;5052153;28;20477;-69
2021/01/13 00:10:24;;;;;;;8.53;5.67;;;1.80;99.90;;;;;;5050999;28;20558;-69
2021/01/13 00:12:51;;;;;;;10.43;5.87;;;1.90;99.90;;;;;;5036806;28;20479;-69
2021/01/13 00:15:17;;;;;;;7.70;5.37;;;2.00;99.90;;;;;;5047748;28;20529;-69
2021/01/13 00:17:48;;;;;;;7.40;5.20;;;2.20;99.90;;;;;;5039417;28;20523;-69
2021/01/13 00:20:15;;;;;;;7.67;4.50;;;2.20;99.90;;;;;;5032103;28;20457;-70
2021/01/13 00:22:41;;;;;;;8.47;5.10;;;2.10;99.90;;;;;;5033103;28;20474;-70
2021/01/13 00:25:08;;;;;;;11.10;5.53;;;2.10;99.90;;;;;;5047738;28;20478;-69
2021/01/13 00:27:35;;;;;;;8.27;5.60;;;2.10;99.90;;;;;;5052560;28;20842;-68
2021/01/13 00:30:02;;;;;;;9.83;5.93;;;2.10;99.90;;;;;;5051944;28;21034;-69
2021/01/13 00:32:31;;;;;;;6.77;4.70;;;2.40;99.90;;;;;;5039495;28;20848;-69
2021/01/13 00:34:59;;;;;;;7.77;6.17;;;2.40;99.90;;;;;;5047009;28;20449;-69
2021/01/13 00:37:25;;;;;;;5.37;4.17;;;2.40;99.90;;;;;;5051095;28;20707;-69
2021/01/13 00:39:52;;;;;;;8.13;4.90;;;2.30;99.90;;;;;;5039004;28;20525;-69
2021/01/13 00:42:18;;;;;;;5.40;4.60;;;2.30;99.90;;;;;;5033898;28;20457;-69
2021/01/13 00:44:45;;;;;;;8.30;5.13;;;2.30;99.90;;;;;;5069131;28;20492;-69
2021/01/13 00:47:14;;;;;;;6.93;4.97;;;2.40;99.90;;;;;;5070978;28;20651;-70
2021/01/13 00:49:40;;;;;;;7.07;4.87;;;2.40;99.90;;;;;;5071103;28;20456;-69
2021/01/13 00:52:09;;;;;;;7.07;5.00;;;2.40;99.90;;;;;;5061165;28;20960;-69
2021/01/13 00:54:36;;;;;;;10.33;4.90;;;2.40;99.90;;;;;;5070948;28;20498;-69
2021/01/13 00:57:03;;;;;;;6.57;5.47;;;2.50;99.90;;;;;;5070903;28;20529;-69
2021/01/13 00:59:29;;;;;;;9.73;5.47;;;2.50;99.90;;;;;;5070401;28;20441;-69
2021/01/13 01:01:56;;;;;;;10.27;5.07;;;2.50;99.90;;;;;;5070825;28;20495;-69
2021/01/13 01:04:22;;;;;;;6.30;4.80;;;2.50;99.90;;;;;;5070724;28;20635;-69
2021/01/13 01:06:49;;;;;;;7.40;5.33;;;2.50;99.90;;;;;;5070820;28;20541;-69
2021/01/13 01:09:17;;;;;;;9.60;6.23;;;2.60;99.90;;;;;;5070061;28;20474;-69
2021/01/13 01:11:43;;;;;;;6.97;5.07;;;2.50;99.90;;;;;;5055720;28;20473;-69
2021/01/13 01:14:11;;;;;;;9.13;5.37;;;2.50;99.90;;;;;;5058836;28;20540;-69
2021/01/13 01:16:40;;;;;;;6.33;4.83;;;2.50;99.90;;;;;;5066431;28;20434;-69
2021/01/13 01:19:08;;;;;;;8.10;5.27;;;2.50;99.90;;;;;;5063119;28;20442;-68
2021/01/13 01:21:39;;;;;;;10.43;5.33;;;2.40;99.90;;;;;;5070093;28;20449;-69
2021/01/13 01:24:06;;;;;;;7.07;4.33;;;2.40;99.90;;;;;;5070538;28;20441;-69
2021/01/13 01:26:41;;;;;;;8.73;5.60;;;2.50;99.90;;;;;;5053783;28;20541;-69
2021/01/13 01:29:07;;;;;;;7.10;5.10;;;2.50;99.90;;;;;;5057958;28;20523;-69
2021/01/13 01:31:34;;;;;;;7.87;5.67;;;2.60;99.90;;;;;;5069964;28;20560;-69
2021/01/13 01:34:00;;;;;;;8.47;4.97;;;2.60;99.90;;;;;;5070456;28;20481;-69
2021/01/13 01:36:26;;;;;;;5.23;4.20;;;2.60;99.90;;;;;;5053936;28;21398;-69
2021/01/13 01:38:53;;;;;;;5.53;3.63;;;2.60;99.90;;;;;;5050915;28;20545;-69
2021/01/13 01:41:19;;;;;;;9.00;5.57;;;2.60;99.90;;;;;;5050337;28;20454;-69
2021/01/13 01:43:47;;;;;;;8.00;4.70;;;2.60;99.90;;;;;;5068499;28;21010;-69
2021/01/13 01:46:13;;;;;;;4.37;3.73;;;2.70;99.90;;;;;;5071453;28;20516;-69
2021/01/13 01:48:51;;;;;;;8.10;4.83;;;2.70;99.90;;;;;;5072314;28;20446;-70
2021/01/13 01:51:21;;;;;;;6.57;4.73;;;2.80;99.90;;;;;;5065196;28;20506;-69
2021/01/13 01:54:02;;;;;;;11.10;5.53;;;2.90;99.90;;;;;;5065311;28;20466;-69
2021/01/13 01:56:35;;;;;;;6.47;4.60;;;2.90;99.90;;;;;;5050631;28;20446;-69
2021/01/13 01:59:04;;;;;;;7.93;4.33;;;3.00;99.90;;;;;;5054253;28;20485;-69
2021/01/13 02:01:33;;;;;;;5.30;3.97;;;3.00;99.90;;;;;;5052196;28;20454;-69
2021/01/13 02:04:13;;;;;;;6.63;4.27;;;3.00;99.90;;;;;;5070444;28;20488;-69
2021/01/13 02:07:04;;;;;;;5.77;4.67;;;3.00;99.90;;;;;;5070476;28;20526;-69
2021/01/13 02:09:33;;;;;;;9.70;3.90;;;3.00;99.90;;;;;;5070122;28;20456;-69
2021/01/13 02:12:04;;;;;;;5.30;4.10;;;2.90;99.90;;;;;;5054049;28;20505;-69
2021/01/13 02:14:32;;;;;;;6.87;5.10;;;3.00;99.90;;;;;;5050124;28;20883;-69
2021/01/13 02:17:00;;;;;;;6.90;4.03;;;3.00;99.90;;;;;;5055861;28;20494;-69
2021/01/13 02:19:58;;;;;;;5.60;3.60;;;2.90;99.90;;;;;;5069359;28;20503;-69
2021/01/13 02:22:26;;;;;;;6.30;4.70;;;2.80;99.90;;;;;;5068573;28;20462;-69
2021/01/13 02:25:28;;;;;;;5.17;3.87;;;2.90;99.90;;;;;;5069443;28;20802;-69
2021/01/13 02:28:02;;;;;;;6.57;3.90;;;3.00;99.90;;;;;;5050039;28;20481;-69
2021/01/13 02:30:34;;;;;;;5.13;3.50;;;2.90;99.90;;;;;;5048950;28;21119;-70
2021/01/13 02:33:07;;;;;;;4.93;3.30;;;3.00;99.90;;;;;;5058500;28;20445;-69
2021/01/13 02:35:54;;;;;;;5.50;3.63;;;2.80;99.90;;;;;;5070144;28;20440;-69
2021/01/13 02:38:23;;;;;;;4.33;3.60;;;2.90;99.90;;;;;;5068900;28;20539;-69
2021/01/13 02:40:50;;;;;;;4.80;3.80;;;2.90;99.90;;;;;;5067441;28;20453;-69
2021/01/13 02:43:21;;;;;;;4.10;3.50;;;3.00;99.90;;;;;;5058115;28;20992;-69
2021/01/13 02:45:49;;;;;;;3.97;2.90;;;3.00;99.90;;;;;;5069262;28;20450;-69
2021/01/13 02:48:20;;;;;;;6.40;3.03;;;2.90;99.90;;;;;;5068523;28;20474;-69
2021/01/13 02:50:53;;;;;;;3.50;2.53;;;2.90;99.90;;;;;;5069341;28;20572;-69
2021/01/13 02:53:49;;;;;;;5.47;3.27;;;3.00;99.90;;;;;;5067552;28;20449;-70
2021/01/13 02:56:38;;;;;;;7.53;2.83;;;3.00;99.90;;;;;;5066280;28;20484;-70
2021/01/13 02:59:09;;;;;;;4.70;2.50;;;2.90;99.90;;;;;;5066219;28;20964;-69
2021/01/13 03:01:41;;;;;;;5.37;3.07;;;2.90;99.90;;;;;;5070992;28;20461;-70
2021/01/13 03:04:08;;;;;;;2.80;2.50;;;2.80;99.90;;;;;;5058077;28;20446;-69
2021/01/13 03:06:38;;;;;;;3.60;2.83;;;2.80;99.90;;;;;;5059014;28;20550;-69
2021/01/13 03:09:06;;;;;;;5.13;3.10;;;2.70;99.90;;;;;;5056938;28;20442;-69
2021/01/13 03:11:34;;;;;;;3.33;2.57;;;2.80;99.90;;;;;;5062424;28;20519;-69
2021/01/13 03:14:20;;;;;;;5.37;3.80;;;2.80;99.90;;;;;;5062151;28;20548;-69
2021/01/13 03:17:09;;;;;;;4.23;2.70;;;2.80;99.90;;;;;;5072890;28;20458;-69
2021/01/13 03:20:15;;;;;;;2.67;2.33;;;2.90;99.90;;;;;;5054849;28;20438;-69
2021/01/13 03:22:49;;;;;;;6.80;3.27;;;2.80;99.90;;;;;;5058829;28;20472;-69
2021/01/13 03:25:17;;;;;;;3.53;2.90;;;2.70;99.90;;;;;;5071896;28;20445;-69
2021/01/13 03:27:46;;;;;;;2.90;2.70;;;2.70;99.90;;;;;;5073094;28;20452;-70
2021/01/13 03:30:17;;;;;;;11.03;3.23;;;2.70;99.90;;;;;;5072003;28;20507;-69
2021/01/13 03:33:08;;;;;;;4.43;2.50;;;2.70;99.90;;;;;;5071712;28;20512;-69
2021/01/13 03:35:40;;;;;;;3.93;2.70;;;2.60;99.90;;;;;;5073068;28;20536;-69
2021/01/13 03:38:12;;;;;;;3.63;2.80;;;2.60;99.90;;;;;;5063802;28;20537;-69
2021/01/13 03:40:42;;;;;;;4.47;3.20;;;2.50;99.90;;;;;;5067371;28;20480;-69
2021/01/13 03:43:17;;;;;;;3.30;2.97;;;2.50;99.90;;;;;;5070396;28;20474;-68
2021/01/13 03:45:48;;;;;;;6.77;2.97;;;2.50;99.90;;;;;;5072607;28;20453;-69
2021/01/13 03:48:31;;;;;;;4.60;2.93;;;2.40;99.90;;;;;;5070321;28;20448;-70
2021/01/13 03:50:59;;;;;;;9.30;3.47;;;2.50;99.90;;;;;;5064538;28;20603;-69
2021/01/13 03:53:27;;;;;;;5.93;3.20;;;2.50;99.90;;;;;;5064025;28;20632;-69
2021/01/13 03:55:55;;;;;;;5.80;3.23;;;2.50;99.90;;;;;;5072287;28;20540;-69
2021/01/13 03:58:51;;;;;;;3.40;2.93;;;2.40;99.90;;;;;;5071378;28;20975;-69
2021/01/13 04:01:49;;;;;;;2.93;2.63;;;2.30;99.90;;;;;;5071096;28;20480;-69
2021/01/13 04:04:46;;;;;;;6.33;3.10;;;2.20;99.90;;;;;;5051914;28;20474;-70
2021/01/13 04:07:14;;;;;;;7.73;2.83;;;2.20;99.90;;;;;;5051641;28;20829;-69
2021/01/13 04:09:41;;;;;;;3.50;2.60;;;2.00;99.90;;;;;;5055971;28;20523;-69
2021/01/13 04:12:10;;;;;;;4.90;3.57;;;2.00;99.90;;;;;;5069679;28;20485;-69
2021/01/13 04:14:48;;;;;;;4.73;3.20;;;2.00;99.90;;;;;;5054177;28;21027;-70
2021/01/13 04:17:16;;;;;;;3.80;3.23;;;2.00;99.90;;;;;;5051996;28;20533;-69
2021/01/13 04:19:43;;;;;;;8.87;3.17;;;2.10;99.90;;;;;;5057389;28;20822;-70
2021/01/13 04:22:11;;;;;;;3.47;2.03;;;2.00;99.90;;;;;;5055903;28;20450;-70
2021/01/13 04:24:39;;;;;;;3.80;2.90;;;2.00;99.90;;;;;;5053498;28;20449;-70
2021/01/13 04:27:06;;;;;;;4.20;2.90;;;2.10;99.90;;;;;;5062845;28;20594;-69
2021/01/13 04:29:33;;;;;;;4.20;2.87;;;2.20;99.90;;;;;;5070776;28;20535;-69
2021/01/13 04:32:00;;;;;;;7.53;3.80;;;2.20;99.90;;;;;;5052322;28;20569;-68
2021/01/13 04:34:27;;;;;;;4.47;3.17;;;2.10;99.90;;;;;;5051429;28;21001;-68
2021/01/13 04:36:57;;;;;;;4.53;2.77;;;2.10;99.90;;;;;;5054783;28;20507;-70
2021/01/13 04:39:25;;;;;;;2.93;2.60;;;2.20;99.90;;;;;;5058325;28;20512;-68
2021/01/13 04:42:06;;;;;;;2.73;2.27;;;2.30;99.90;;;;;;5051675;28;20462;-69
2021/01/13 04:44:35;;;;;;;3.43;2.70;;;2.20;99.90;;;;;;5056959;28;20485;-69
2021/01/13 04:47:07;;;;;;;3.40;2.50;;;2.10;99.90;;;;;;5056560;28;20454;-69
2021/01/13 04:49:36;;;;;;;3.20;2.50;;;2.10;99.90;;;;;;5052316;28;20454;-69
2021/01/13 04:52:06;;;;;;;3.67;3.20;;;2.00;99.90;;;;;;5053579;28;20510;-68
2021/01/13 04:54:37;;;;;;;5.90;2.90;;;2.00;99.90;;;;;;5051251;28;20454;-68
2021/01/13 04:57:34;;;;;;;3.20;2.33;;;2.00;99.90;;;;;;5052764;28;20502;-69
2021/01/13 05:00:11;;;;;;;3.60;2.60;;;2.10;99.90;;;;;;5070498;28;20810;-69
2021/01/13 05:03:17;;;;;;;3.17;2.10;;;1.90;99.90;;;;;;5071319;28;20912;-68
2021/01/13 05:05:50;;;;;;;4.03;2.07;;;1.80;99.90;;;;;;5061317;28;20441;-69
2021/01/13 05:08:28;;;;;;;4.90;2.33;;;1.90;99.90;;;;;;5070346;28;20539;-70
2021/01/13 05:11:09;;;;;;;3.57;2.67;;;2.00;99.90;;;;;;5060847;28;20566;-70
2021/01/13 05:13:37;;;;;;;5.27;3.00;;;2.00;99.90;;;;;;5057577;28;20538;-69
2021/01/13 05:16:10;;;;;;;3.70;2.70;;;2.00;99.90;;;;;;5070871;28;20533;-69
2021/01/13 05:18:53;;;;;;;3.80;2.40;;;2.00;99.90;;;;;;5070349;28;21009;-69
2021/01/13 05:21:22;;;;;;;4.37;2.03;;;2.00;99.90;;;;;;5066526;28;20536;-69
2021/01/13 05:23:53;;;;;;;6.83;3.33;;;2.10;99.90;;;;;;5062932;28;20522;-69
2021/01/13 05:26:22;;;;;;;6.63;3.27;;;2.00;99.90;;;;;;5050153;28;20475;-69
2021/01/13 05:29:23;;;;;;;5.50;2.97;;;2.20;99.90;;;;;;5051117;28;20481;-69
2021/01/13 05:31:51;;;;;;;4.80;2.90;;;2.10;99.90;;;;;;5052604;28;20986;-69
2021/01/13 05:34:19;;;;;;;3.90;2.60;;;2.10;99.90;;;;;;5059863;28;20451;-69
2021/01/13 05:37:14;;;;;;;3.50;2.60;;;2.10;99.90;;;;;;5051158;28;20442;-69
2021/01/13 05:39:42;;;;;;;3.73;2.50;;;2.10;99.90;;;;;;5050398;28;20450;-69
2021/01/13 05:42:10;;;;;;;3.83;3.03;;;2.10;99.90;;;;;;5055285;28;20460;-68
2021/01/13 05:44:37;;;;;;;4.33;2.73;;;2.10;99.90;;;;;;5058447;28;20503;-69
2021/01/13 05:47:05;;;;;;;8.23;3.60;;;1.90;99.90;;;;;;5064740;28;20540;-69
2021/01/13 05:49:32;;;;;;;5.87;3.87;;;1.90;99.90;;;;;;5060444;28;20449;-69
2021/01/13 05:52:06;;;;;;;4.80;3.00;;;1.90;99.90;;;;;;5061115;28;20515;-69
2021/01/13 05:54:35;;;;;;;7.80;3.13;;;1.90;99.90;;;;;;5066052;28;20445;-69
2021/01/13 05:57:02;;;;;;;7.70;3.57;;;1.80;99.90;;;;;;5069481;28;20488;-70
2021/01/13 05:59:30;;;;;;;5.03;3.20;;;1.80;99.90;;;;;;5065442;28;20480;-70
2021/01/13 06:01:58;;;;;;;7.93;3.53;;;1.90;99.90;;;;;;5050136;28;20510;-69
2021/01/13 06:04:26;;;;;;;6.10;3.27;;;1.80;99.90;;;;;;5054015;28;20437;-69
2021/01/13 06:07:04;;;;;;;8.90;3.03;;;1.70;99.90;;;;;;5063787;28;20454;-69
2021/01/13 06:09:39;;;;;;;6.90;2.87;;;1.70;99.90;;;;;;5050356;28;20446;-69
2021/01/13 06:12:12;;;;;;;4.63;3.37;;;1.70;99.90;;;;;;5053576;28;20551;-67
2021/01/13 06:14:39;;;;;;;4.87;3.47;;;1.80;99.90;;;;;;5067701;28;20456;-70
2021/01/13 06:17:07;;;;;;;9.33;3.73;;;1.80;99.90;;;;;;5059202;28;20921;-68
2021/01/13 06:19:34;;;;;;;9.13;4.73;;;1.70;99.90;;;;;;5069264;28;20458;-73
2021/01/13 06:22:18;;;;;;;5.90;3.10;;;1.60;99.90;;;;;;5061778;28;20456;-68
2021/01/13 06:24:47;;;;;;;4.93;3.47;;;1.60;99.90;;;;;;5057590;28;20525;-68
2021/01/13 06:27:18;;;;;;;8.00;2.70;;;1.50;99.90;;;;;;5057150;28;20488;-68
2021/01/13 06:29:49;;;;;;;7.43;4.13;;;1.50;99.90;;;;;;5049388;28;20487;-68
2021/01/13 06:32:31;;;;;;;7.40;3.53;;;1.50;99.90;;;;;;5068099;28;20486;-69
2021/01/13 06:35:04;;;;;;;4.73;4.33;;;1.40;99.90;;;;;;5052883;28;20543;-68
2021/01/13 06:37:45;;;;;;;7.63;3.00;;;1.40;99.90;;;;;;5068907;28;20933;-68
2021/01/13 06:40:14;;;;;;;7.37;3.20;;;1.40;99.90;;;;;;5069257;28;20821;-68
2021/01/13 06:42:41;;;;;;;3.93;3.07;;;1.40;99.90;;;;;;5062448;28;20476;-70
2021/01/13 06:45:10;;;;;;;3.70;2.93;;;1.40;99.90;;;;;;5064789;28;20532;-68
2021/01/13 06:47:37;;;;;;;4.10;3.50;;;1.30;99.90;;;;;;5056688;28;20537;-68
2021/01/13 06:50:04;;;;;;;8.73;3.70;;;1.40;99.90;;;;;;5050331;28;20587;-69
2021/01/13 06:52:33;;;;;;;6.60;4.10;;;1.30;99.90;;;;;;5054927;28;20449;-69
2021/01/13 06:55:00;;;;;;;4.43;3.00;;;1.30;99.90;;;;;;5054225;28;20926;-69
2021/01/13 06:57:28;;;;;;;4.37;3.80;;;1.30;99.90;;;;;;5048897;28;20460;-69
2021/01/13 06:59:55;;;;;;;7.90;3.50;;;1.20;99.90;;;;;;5049733;28;20448;-69
2021/01/13 07:02:32;;;;;;;4.47;3.07;;;1.20;99.90;;;;;;5048101;28;20591;-69
2021/01/13 07:04:59;;;;;;;7.87;4.00;;;1.10;99.90;;;;;;5049956;28;20452;-67
2021/01/13 07:07:25;;;;;;;9.17;3.70;;;1.10;99.90;;;;;;5061204;28;21356;-68
2021/01/13 07:09:52;;;;;;;5.87;3.53;;;1.30;99.90;;;;;;5049343;28;20453;-68
2021/01/13 07:12:20;;;;;;;8.80;4.30;;;1.20;99.90;;;;;;5048084;28;20517;-69
2021/01/13 07:14:49;;;;;;;6.83;3.40;;;1.10;99.90;;;;;;5049114;28;20577;-69
2021/01/13 07:17:17;;;;;;;11.30;4.43;;;1.20;99.90;;;;;;5048871;28;20450;-68
2021/01/13 07:19:48;;;;;;;4.10;3.37;;;1.10;99.90;;;;;;5049303;28;20485;-68
2021/01/13 07:22:16;;;;;;;5.73;4.20;;;1.10;99.90;;;;;;5048241;28;20481;-68
2021/01/13 07:24:44;;;;;;;7.30;3.87;;;1.10;99.90;;;;;;5049574;28;20446;-68
2021/01/13 07:27:11;;;;;;;10.17;4.33;;;1.10;99.90;;;;;;5048745;28;20529;-68
2021/01/13 07:29:38;;;;;;;7.90;3.73;;;1.20;99.90;;;;;;5049900;28;20524;-69
2021/01/13 07:32:07;;;;;;;6.67;3.60;;;1.10;99.90;;;;;;5049115;28;20576;-67
2021/01/13 07:34:36;;;;;;;11.67;5.07;;;1.10;99.90;;;;;;5049249;28;20454;-67
2021/01/13 07:37:07;;;;;;;6.87;4.47;;;1.00;99.90;;;;;;5049494;28;20473;-68
2021/01/13 07:40:20;;;;;;;7.37;4.80;;;1.00;99.90;;;;;;5049201;28;20485;-68
2021/01/13 07:42:47;;;;;;;6.20;4.17;;;0.90;99.90;;;;;;5056930;28;20543;-68
2021/01/13 07:45:15;;;;;;;4.37;3.57;;;1.00;99.90;;;;;;5060407;28;20449;-68
2021/01/13 07:48:21;;;;;;;7.73;3.87;;;1.00;99.90;;;;;;5052914;28;20900;-68
2021/01/13 07:50:50;;;;;;;10.20;4.47;;;1.20;99.90;;;;;;5054984;28;20572;-68
2021/01/13 07:53:25;;;;;;;7.77;4.30;;;1.20;99.90;;;;;;5051823;28;20541;-68
2021/01/13 07:55:59;;;;;;;9.10;5.10;;;1.50;99.90;;;;;;5052409;28;20495;-68
2021/01/13 07:58:30;;;;;;;8.77;4.20;;;1.50;99.90;;;;;;5051858;28;20573;-68
2021/01/13 08:01:47;;;;;;;10.50;6.57;;;1.30;99.90;;;;;;5052321;28;20528;-68
2021/01/13 08:04:47;;;;;;;8.87;5.57;;;1.30;99.90;;;;;;5015723;28;21091;-68
2021/01/13 08:07:16;;;;;;;8.53;5.20;;;1.30;99.90;;;;;;5051508;28;20540;-67
2021/01/13 08:09:49;;;;;;;11.30;5.27;;;1.20;99.90;;;;;;5052302;28;20457;-68
2021/01/13 08:12:44;;;;;;;8.23;4.60;;;1.20;99.90;;;;;;5051686;28;20487;-69
2021/01/13 08:15:43;;;;;;;10.33;5.53;;;1.20;99.90;;;;;;5051577;28;20528;-67
2021/01/13 08:18:50;;;;;;;5.80;5.20;;;1.20;99.90;;;;;;5051377;28;20524;-68
2021/01/13 08:21:26;;;;;;;8.67;4.90;;;1.30;99.90;;;;;;5029305;28;20454;-69
2021/01/13 08:24:06;;;;;;;9.30;5.60;;;1.70;99.90;;;;;;5052482;28;20579;-68
2021/01/13 08:26:33;;;;;;;8.57;4.40;;;2.20;99.90;;;;;;5051902;28;20442;-69
2021/01/13 08:29:02;;;;;;;8.57;5.73;;;2.20;99.90;;;;;;5053002;28;20475;-69
2021/01/13 08:31:31;;;;;;;9.97;5.40;;;2.00;99.90;;;;;;5052062;28;20489;-69
2021/01/13 08:34:08;;;;;;;9.40;4.47;;;1.90;99.90;;;;;;5052860;28;21014;-68
2021/01/13 08:36:36;;;;;;;10.07;5.50;;;1.70;99.90;;;;;;5052212;28;20484;-68
2021/01/13 08:39:13;;;;;;;8.90;5.10;;;1.70;99.90;;;;;;5051895;28;20443;-68
2021/01/13 08:41:40;;;;;;;5.07;4.13;;;1.70;99.90;;;;;;5051456;28;20941;-69
2021/01/13 08:44:09;;;;;;;9.83;5.87;;;1.80;99.90;;;;;;5064700;28;20843;-68
2021/01/13 08:46:48;;;;;;;13.67;5.40;;;1.80;99.90;;;;;;5052011;28;20533;-68
2021/01/13 08:49:25;;;;;;;9.07;4.70;;;2.00;99.90;;;;;;5050778;28;20972;-68
2021/01/13 08:52:26;;;;;;;6.63;4.70;;;2.20;99.90;;;;;;5053011;28;20583;-68
2021/01/13 08:55:16;;;;;;;7.97;5.50;;;2.40;99.90;;;;;;5051274;28;20525;-68
2021/01/13 08:57:54;;;;;;;7.90;6.03;;;2.40;99.90;;;;;;5051710;28;20511;-68
2021/01/13 09:00:22;;;;;;;13.00;5.30;;;2.50;99.90;;;;;;5050831;28;20907;-67
2021/01/13 09:03:02;;;;;;;8.63;4.70;;;2.60;99.90;;;;;;5051056;28;20458;-68
2021/01/13 09:05:30;;;;;;;8.40;4.07;;;2.60;94.70;;;;;;5050400;28;21023;-68
2021/01/13 09:07:58;;;;;;;6.10;4.93;;;2.60;99.90;;;;;;5051713;28;20453;-68
2021/01/13 09:10:49;;;;;;;11.73;5.10;;;2.60;99.90;;;;;;5050397;28;21024;-68
2021/01/13 09:13:40;;;;;;;6.53;5.30;;;2.60;99.90;;;;;;5050273;28;20458;-68
2021/01/13 09:16:33;;;;;;;5.07;3.80;;;2.70;99.90;;;;;;5040911;28;20458;-68
2021/01/13 09:19:10;;;;;;;8.67;4.40;;;2.70;99.90;;;;;;5051562;28;20553;-68
2021/01/13 09:21:38;;;;;;;8.60;4.97;;;2.70;99.90;;;;;;5050631;28;20500;-68
2021/01/13 09:24:06;;;;;;;7.30;4.17;;;2.70;99.90;;;;;;5051114;28;20449;-68
2021/01/13 09:26:36;;;;;;;11.50;4.50;;;2.90;99.90;;;;;;5054122;28;20481;-68
2021/01/13 09:29:05;;;;;;;8.60;4.73;;;2.90;99.90;;;;;;5054185;28;20482;-68
2021/01/13 09:31:33;;;;;;;4.63;3.67;;;3.00;99.90;;;;;;5050073;28;20624;-68
2021/01/13 09:33:59;;;;;;;5.27;3.63;;;3.10;10.80;;;;;;5051061;28;20447;-68
2021/01/13 09:36:26;;;;;;;4.90;2.80;;;3.10;1.00;;;;;;5050160;28;20446;-67
2021/01/13 09:39:13;;;;;;;8.50;3.30;;;3.10;16.40;;;;;;5050746;28;20993;-67
2021/01/13 09:41:55;;;;;;;7.50;4.53;;;3.20;1.00;;;;;;5050325;28;20550;-68
2021/01/13 09:44:30;;;;;;;10.90;3.57;;;3.30;1.00;;;;;;5062602;28;20539;-68
2021/01/13 09:46:57;;;;;;;7.80;2.63;;;3.30;1.00;;;;;;5051091;28;20435;-68
2021/01/13 09:49:24;;;;;;;4.37;3.27;;;3.40;1.00;;;;;;5050096;28;20872;-67
2021/01/13 09:51:50;;;;;;;4.20;3.00;;;3.50;99.90;;;;;;5052967;28;20482;-68
2021/01/13 09:54:22;;;;;;;4.63;3.00;;;3.50;1.00;;;;;;5049547;28;20475;-67
2021/01/13 09:56:54;;;;;;;4.40;2.50;;;3.40;1.00;;;;;;5050020;28;20534;-68
2021/01/13 09:59:24;;;;;;;10.03;2.47;;;3.50;1.00;;;;;;5049507;28;21000;-68
2021/01/13 10:01:55;;;;;;;6.20;2.20;;;3.50;99.90;;;;;;5049822;28;20452;-68
2021/01/13 10:04:23;;;;;;;6.23;2.30;;;3.70;99.90;;;;;;5049257;28;20470;-69
2021/01/13 10:06:53;;;;;;;3.73;3.10;;;3.70;99.90;;;;;;5050587;28;20446;-68
2021/01/13 10:09:21;;;;;;;3.27;2.00;;;3.80;1.00;;;;;;5050489;28;20475;-69
2021/01/13 10:11:53;;;;;;;3.90;2.20;;;3.80;99.90;;;;;;5049456;28;20526;-68
2021/01/13 10:14:21;;;;;;;5.37;2.40;;;3.90;11.40;;;;;;5049473;28;20935;-68
2021/01/13 10:16:48;;;;;;;5.83;3.27;;;4.00;1.00;;;;;;5049771;28;20529;-68
2021/01/13 10:19:17;;;;;;;5.83;2.87;;;3.80;1.00;;;;;;5049141;28;20470;-68
2021/01/13 10:21:45;;;;;;;3.03;1.63;;;4.00;55.90;;;;;;5049588;28;20462;-68
2021/01/13 10:24:14;;;;;;;7.47;2.73;;;4.10;1.00;;;;;;5049227;28;20482;-68
2021/01/13 10:26:41;;;;;;;5.00;2.77;;;4.10;1.00;;;;;;5049650;28;20489;-68
2021/01/13 10:29:10;;;;;;;6.77;2.00;;;4.10;1.00;;;;;;5049006;28;20534;-68
2021/01/13 10:31:37;;;;;;;4.30;2.03;;;4.00;1.00;;;;;;5049040;28;20479;-68
2021/01/13 10:34:04;;;;;;;6.30;2.43;;;4.00;99.90;;;;;;5049916;28;20477;-67
2021/01/13 10:36:42;;;;;;;2.60;1.90;;;4.00;1.00;;;;;;5049041;28;20446;-68
2021/01/13 10:39:13;;;;;;;4.50;2.53;;;3.90;1.00;;;;;;5048814;28;20857;-68
2021/01/13 10:41:41;;;;;;;4.43;1.90;;;3.90;1.00;;;;;;5049521;28;20486;-67
2021/01/13 10:44:12;;;;;;;1.73;1.63;;;3.80;1.00;;;;;;5062101;28;21056;-68
2021/01/13 10:46:52;;;;;;;4.33;1.70;;;3.90;1.00;;;;;;5049523;28;20473;-68
2021/01/13 10:49:30;;;;;;;4.50;1.80;;;3.90;99.90;;;;;;5049123;28;20551;-68
2021/01/13 10:51:58;;;;;;;2.23;1.40;;;3.90;99.90;;;;;;5051640;28;20469;-67
2021/01/13 10:54:26;;;;;;;5.03;4.53;;;3.90;1.00;;;;;;5048840;28;20484;-66
2021/01/13 10:56:56;;;;;;;6.30;2.20;;;4.10;1.00;;;;;;5049508;28;20537;-67
2021/01/13 10:59:24;;;;;;;3.60;2.30;;;4.20;99.90;;;;;;5048820;28;20537;-67
2021/01/13 11:01:52;;;;;;;4.77;2.20;;;4.20;1.00;;;;;;5049110;28;20459;-67
2021/01/13 11:04:24;;;;;;;6.23;2.40;;;4.20;1.00;;;;;;5048645;28;20934;-67
2021/01/13 11:06:55;;;;;;;3.97;2.10;;;4.30;1.00;;;;;;5049532;28;20960;-67
2021/01/13 11:09:22;;;;;;;3.43;1.50;;;4.40;99.90;;;;;;5049004;28;20523;-68
2021/01/13 11:11:49;;;;;;;5.13;1.77;;;4.30;1.00;;;;;;5049190;28;20486;-68
2021/01/13 11:14:27;;;;;;;5.80;1.93;;;4.50;99.90;;;;;;5048797;28;20457;-68
2021/01/13 11:17:05;;;;;;;3.17;2.30;;;4.50;1.00;;;;;;5052231;28;20544;-69
2021/01/13 11:19:32;;;;;;;2.37;1.77;;;4.50;1.00;;;;;;5053015;28;20507;-68
2021/01/13 11:22:00;;;;;;;1.97;1.70;;;4.60;1.00;;;;;;5053049;28;20496;-69
2021/01/13 11:24:38;;;;;;;3.53;1.60;;;4.70;1.00;;;;;;5052447;28;20507;-68
2021/01/13 11:27:08;;;;;;;3.50;2.23;;;4.80;99.90;;;;;;5053005;28;20532;-68
2021/01/13 11:29:36;;;;;;;4.23;2.50;;;4.90;1.00;;;;;;5052892;28;20958;-68
2021/01/13 11:32:05;;;;;;;3.90;1.50;;;4.80;99.90;;;;;;5052750;28;20517;-68
2021/01/13 11:34:32;;;;;;;5.17;2.10;;;4.80;1.00;;;;;;5052315;28;20533;-68
2021/01/13 11:37:28;;;;;;;3.63;2.00;;;4.70;1.00;;;;;;5052804;28;20529;-68
2021/01/13 11:40:08;;;;;;;4.00;2.63;;;4.80;99.90;;;;;;5052798;28;20529;-68
2021/01/13 11:43:14;;;;;;;4.87;2.30;;;5.00;99.90;;;;;;5055453;28;20936;-68
2021/01/13 11:45:54;;;;;;;6.47;1.90;;;5.00;1.00;;;;;;5056736;28;20460;-68
2021/01/13 11:48:31;;;;;;;1.97;1.40;;;4.90;99.90;;;;;;5051904;28;20442;-68
2021/01/13 11:51:01;;;;;;;3.70;2.40;;;5.10;1.00;;;;;;5054447;28;20999;-68
2021/01/13 11:53:33;;;;;;;5.17;2.30;;;5.00;1.00;;;;;;5052001;28;20442;-68
2021/01/13 11:56:03;;;;;;;6.27;1.60;;;4.90;1.00;;;;;;5052794;28;20870;-68
2021/01/13 11:58:31;;;;;;;3.00;1.63;;;4.80;99.90;;;;;;5053770;28;20533;-69
2021/01/13 12:00:57;;;;;;;6.47;2.00;;;;;;;;;;5058641;28;20453;-69
2021/01/13 12:03:25;;;;;;;2.13;1.37;;;;;;;;;;5052276;28;20537;-69
2021/01/13 12:05:51;;;;;;;4.80;1.53;;;;;;;;;;5052608;28;20520;-68
2021/01/13 12:08:20;;;;;;;4.10;1.60;;;;;;;;;;5051550;28;20580;-66
2021/01/13 12:10:49;;;;;;;2.00;1.73;;;;;;;;;;5051694;28;20511;-66
2021/01/13 12:13:17;;;;;;;2.73;1.47;;;;;;;;;;5051164;28;20485;-67
2021/01/13 12:15:47;;;;;;;2.67;1.70;;;;;;;;;;5052118;28;20525;-67
2021/01/13 12:18:18;;;;;;;4.53;1.20;;;;;;;;;;5051270;28;20454;-66
2021/01/13 12:20:46;;;;;;;3.23;1.20;;;;;;;;;;5062275;28;20446;-67
2021/01/13 12:23:28;;;;;;;1.80;1.57;;;4.90;99.90;;;;;;5063406;28;20529;-67
2021/01/13 12:26:14;;;;;;;4.80;1.40;;;5.40;1.00;;;;;;5053711;28;20539;-67
2021/01/13 12:28:42;;;;;;;1.93;1.20;;;5.40;74.90;;;;;;5052146;28;20453;-68
2021/01/13 12:31:08;;;;;;;1.50;1.10;;;5.30;1.00;;;;;;5050864;28;20573;-67
2021/01/13 12:33:38;;;;;;;4.27;1.53;;;5.30;1.00;;;;;;5053409;28;21000;-67
2021/01/13 12:36:17;;;;;;;2.13;1.07;;;5.30;1.00;;;;;;5052050;28;21033;-69
2021/01/13 12:38:46;;;;;;;1.90;0.70;;;5.20;99.90;;;;;;5061568;28;20964;-69
2021/01/13 12:41:19;;;;;;;4.33;0.90;;;5.10;99.90;;;;;;5056254;28;20914;-69
2021/01/13 12:43:45;;;;;;;1.93;0.77;;;5.10;1.00;;;;;;5064703;28;20552;-67
2021/01/13 12:46:11;;;;;;;2.80;1.33;;;5.20;99.90;;;;;;5065945;28;20452;-67
2021/01/13 12:48:38;;;;;;;3.43;1.20;;;5.30;99.90;;;;;;5071497;28;20552;-68
2021/01/13 12:51:05;;;;;;;2.60;1.10;;;5.40;99.90;;;;;;5061806;28;20596;-68
2021/01/13 12:53:32;;;;;;;2.60;0.90;;;5.20;99.90;;;;;;5051005;28;20888;-68
2021/01/13 12:55:59;;;;;;;2.93;1.10;;;5.10;1.00;;;;;;5068203;28;20477;-68
2021/01/13 12:58:25;;;;;;;2.33;0.90;;;5.10;99.90;;;;;;5070610;28;20473;-68
2021/01/13 13:00:52;;;;;;;2.10;1.07;;;5.40;1.00;;;;;;5070365;28;20516;-68
2021/01/13 13:03:19;;;;;;;7.80;1.77;;;5.30;1.00;;;;;;5070328;28;20453;-68
2021/01/13 13:05:45;;;;;;;4.33;0.87;;;5.00;1.00;;;;;;5068534;28;20449;-68
2021/01/13 13:08:11;;;;;;;3.33;0.70;;;4.90;1.00;;;;;;5070338;28;20951;-68
2021/01/13 13:10:39;;;;;;;2.10;0.70;;;5.00;99.90;;;;;;5070453;28;20531;-68
2021/01/13 13:13:05;;;;;;;1.60;0.90;;;5.10;1.00;;;;;;5070684;28;20528;-68
2021/01/13 13:15:32;;;;;;;1.40;1.10;;;5.20;7.10;;;;;;5069840;28;20457;-68
2021/01/13 13:17:58;;;;;;;1.77;0.87;;;5.30;1.00;;;;;;5070989;28;21014;-68
2021/01/13 13:20:25;;;;;;;2.80;1.20;;;5.30;1.00;;;;;;5069915;28;21264;-68
2021/01/13 13:22:51;;;;;;;1.53;1.03;;;5.30;1.00;;;;;;5070804;28;20450;-68
2021/01/13 13:25:18;;;;;;;2.60;0.93;;;5.20;99.90;;;;;;5057089;28;20480;-68
2021/01/13 13:27:45;;;;;;;1.43;1.10;;;5.10;99.90;;;;;;5064753;28;20477;-68